West Kingston, Rhode Island
Current Conditions -  °F | °C
As of 9:50 PM on Friday 19 Dec 2014 (Local Time) from KOQU Reporting Station
Broken Clouds Broken Clouds  
Wind Chill: 26°   Ceiling: 3000
Heat Index: 32°   Visibility: 10mi
Dew Point: 23°   Wind: 7mph
Humidity: 69%   Direction: 340°NNW
Pressure: 30.11"   Gusts: NA
Location:  41.48°N, 71.55°W
Report Text: KOQU 200250Z 34006KT 10SM BKN030 00/M05 A3011
Loading
Personal Weather Stations






























Interactive Weather Map New forecast layout! Learn more

10-Day Weather Forecast

Advertisements
Track Severe Weather on mobile